sensor_id;sensor_type;location;lat;lon;timestamp;P1;durP1;ratioP1;P2;durP2;ratioP2
40955;SDS011;26687;48.254;11.454;2022-10-16T00:00:48;3.60;;;1.63;;
40955;SDS011;26687;48.254;11.454;2022-10-16T00:03:49;3.30;;;2.00;;
40955;SDS011;26687;48.254;11.454;2022-10-16T00:06:49;2.27;;;1.57;;
40955;SDS011;26687;48.254;11.454;2022-10-16T00:09:49;2.63;;;1.60;;
40955;SDS011;26687;48.254;11.454;2022-10-16T00:12:49;2.47;;;1.70;;
40955;SDS011;26687;48.254;11.454;2022-10-16T00:15:50;3.30;;;1.63;;
40955;SDS011;26687;48.254;11.454;2022-10-16T00:18:50;8.00;;;1.80;;
40955;SDS011;26687;48.254;11.454;2022-10-16T00:21:50;1.92;;;1.40;;
40955;SDS011;26687;48.254;11.454;2022-10-16T00:24:50;2.60;;;1.60;;
40955;SDS011;26687;48.254;11.454;2022-10-16T00:27:50;3.58;;;1.40;;
40955;SDS011;26687;48.254;11.454;2022-10-16T00:30:50;2.28;;;1.45;;
40955;SDS011;26687;48.254;11.454;2022-10-16T00:33:51;2.17;;;1.10;;
40955;SDS011;26687;48.254;11.454;2022-10-16T00:36:51;3.37;;;1.40;;
40955;SDS011;26687;48.254;11.454;2022-10-16T00:39:51;3.28;;;1.20;;
40955;SDS011;26687;48.254;11.454;2022-10-16T00:42:51;2.78;;;1.17;;
40955;SDS011;26687;48.254;11.454;2022-10-16T00:45:51;2.67;;;1.40;;
40955;SDS011;26687;48.254;11.454;2022-10-16T00:48:54;3.13;;;1.13;;
40955;SDS011;26687;48.254;11.454;2022-10-16T00:51:55;1.90;;;1.20;;
40955;SDS011;26687;48.254;11.454;2022-10-16T00:54:55;2.70;;;1.30;;
40955;SDS011;26687;48.254;11.454;2022-10-16T00:57:56;4.97;;;2.38;;
40955;SDS011;26687;48.254;11.454;2022-10-16T01:00:57;3.13;;;1.25;;
40955;SDS011;26687;48.254;11.454;2022-10-16T01:03:57;3.20;;;1.38;;
40955;SDS011;26687;48.254;11.454;2022-10-16T01:07:05;2.73;;;1.20;;
40955;SDS011;26687;48.254;11.454;2022-10-16T01:10:14;2.13;;;1.27;;
40955;SDS011;26687;48.254;11.454;2022-10-16T01:13:36;1.38;;;1.27;;
40955;SDS011;26687;48.254;11.454;2022-10-16T01:16:43;1.20;;;1.10;;
40955;SDS011;26687;48.254;11.454;2022-10-16T01:23:10;1.58;;;1.20;;
40955;SDS011;26687;48.254;11.454;2022-10-16T01:29:26;1.77;;;1.40;;
40955;SDS011;26687;48.254;11.454;2022-10-16T01:32:33;2.28;;;1.40;;
40955;SDS011;26687;48.254;11.454;2022-10-16T01:35:41;3.03;;;1.48;;
40955;SDS011;26687;48.254;11.454;2022-10-16T01:38:43;3.20;;;1.45;;
40955;SDS011;26687;48.254;11.454;2022-10-16T01:41:45;1.60;;;1.50;;
40955;SDS011;26687;48.254;11.454;2022-10-16T01:44:47;2.08;;;1.23;;
40955;SDS011;26687;48.254;11.454;2022-10-16T01:47:49;1.58;;;1.40;;
40955;SDS011;26687;48.254;11.454;2022-10-16T01:54:08;1.63;;;1.35;;
40955;SDS011;26687;48.254;11.454;2022-10-16T01:57:09;1.23;;;1.13;;
40955;SDS011;26687;48.254;11.454;2022-10-16T02:00:10;2.33;;;1.13;;
40955;SDS011;26687;48.254;11.454;2022-10-16T02:03:12;4.03;;;1.65;;
40955;SDS011;26687;48.254;11.454;2022-10-16T02:06:13;1.88;;;1.20;;
40955;SDS011;26687;48.254;11.454;2022-10-16T02:09:14;2.50;;;1.27;;
40955;SDS011;26687;48.254;11.454;2022-10-16T02:12:26;2.42;;;1.42;;
40955;SDS011;26687;48.254;11.454;2022-10-16T02:15:27;2.05;;;1.30;;
40955;SDS011;26687;48.254;11.454;2022-10-16T02:18:27;2.30;;;1.42;;
40955;SDS011;26687;48.254;11.454;2022-10-16T02:21:36;2.70;;;1.35;;
40955;SDS011;26687;48.254;11.454;2022-10-16T02:24:57;2.63;;;1.50;;
40955;SDS011;26687;48.254;11.454;2022-10-16T02:28:17;3.33;;;1.48;;
40955;SDS011;26687;48.254;11.454;2022-10-16T02:31:21;1.77;;;1.15;;
40955;SDS011;26687;48.254;11.454;2022-10-16T02:34:23;2.22;;;1.30;;
40955;SDS011;26687;48.254;11.454;2022-10-16T02:37:24;1.55;;;1.42;;
40955;SDS011;26687;48.254;11.454;2022-10-16T02:40:25;1.80;;;1.33;;
40955;SDS011;26687;48.254;11.454;2022-10-16T02:43:26;2.05;;;1.40;;
40955;SDS011;26687;48.254;11.454;2022-10-16T02:46:26;1.85;;;1.58;;
40955;SDS011;26687;48.254;11.454;2022-10-16T02:49:26;2.47;;;1.67;;
40955;SDS011;26687;48.254;11.454;2022-10-16T02:52:27;3.38;;;1.27;;
40955;SDS011;26687;48.254;11.454;2022-10-16T02:55:27;2.13;;;1.33;;
40955;SDS011;26687;48.254;11.454;2022-10-16T02:58:27;2.42;;;1.50;;
40955;SDS011;26687;48.254;11.454;2022-10-16T03:01:28;2.40;;;1.42;;
40955;SDS011;26687;48.254;11.454;2022-10-16T03:04:28;1.60;;;1.30;;
40955;SDS011;26687;48.254;11.454;2022-10-16T03:07:28;2.30;;;1.80;;
40955;SDS011;26687;48.254;11.454;2022-10-16T03:10:28;2.83;;;1.50;;
40955;SDS011;26687;48.254;11.454;2022-10-16T03:13:28;2.58;;;1.42;;
40955;SDS011;26687;48.254;11.454;2022-10-16T03:16:29;2.30;;;1.48;;
40955;SDS011;26687;48.254;11.454;2022-10-16T03:19:29;3.20;;;1.50;;
40955;SDS011;26687;48.254;11.454;2022-10-16T03:22:29;1.73;;;1.40;;
40955;SDS011;26687;48.254;11.454;2022-10-16T03:25:29;1.33;;;1.23;;
40955;SDS011;26687;48.254;11.454;2022-10-16T03:28:29;2.63;;;1.50;;
40955;SDS011;26687;48.254;11.454;2022-10-16T03:31:30;4.07;;;1.77;;
40955;SDS011;26687;48.254;11.454;2022-10-16T03:34:30;1.42;;;1.30;;
40955;SDS011;26687;48.254;11.454;2022-10-16T03:37:30;1.40;;;1.25;;
40955;SDS011;26687;48.254;11.454;2022-10-16T03:40:30;1.20;;;1.10;;
40955;SDS011;26687;48.254;11.454;2022-10-16T03:43:32;1.40;;;1.30;;
40955;SDS011;26687;48.254;11.454;2022-10-16T03:46:32;1.50;;;1.33;;
40955;SDS011;26687;48.254;11.454;2022-10-16T03:49:32;1.63;;;1.30;;
40955;SDS011;26687;48.254;11.454;2022-10-16T03:52:32;1.55;;;1.38;;
40955;SDS011;26687;48.254;11.454;2022-10-16T03:55:32;3.33;;;2.07;;
40955;SDS011;26687;48.254;11.454;2022-10-16T03:58:33;2.83;;;1.48;;
40955;SDS011;26687;48.254;11.454;2022-10-16T04:01:33;3.10;;;1.70;;
40955;SDS011;26687;48.254;11.454;2022-10-16T04:04:33;3.28;;;1.50;;
40955;SDS011;26687;48.254;11.454;2022-10-16T04:07:34;3.40;;;1.30;;
40955;SDS011;26687;48.254;11.454;2022-10-16T04:10:34;1.50;;;1.37;;
40955;SDS011;26687;48.254;11.454;2022-10-16T04:13:34;1.40;;;1.30;;
40955;SDS011;26687;48.254;11.454;2022-10-16T04:16:34;1.43;;;1.23;;
40955;SDS011;26687;48.254;11.454;2022-10-16T04:19:34;2.80;;;1.30;;
40955;SDS011;26687;48.254;11.454;2022-10-16T04:22:34;2.35;;;1.10;;
40955;SDS011;26687;48.254;11.454;2022-10-16T04:25:35;3.58;;;1.92;;
40955;SDS011;26687;48.254;11.454;2022-10-16T04:28:35;2.75;;;1.52;;
40955;SDS011;26687;48.254;11.454;2022-10-16T04:31:35;2.10;;;1.53;;
40955;SDS011;26687;48.254;11.454;2022-10-16T04:34:35;3.15;;;1.50;;
40955;SDS011;26687;48.254;11.454;2022-10-16T04:37:36;2.50;;;1.52;;
40955;SDS011;26687;48.254;11.454;2022-10-16T04:40:36;2.45;;;1.30;;
40955;SDS011;26687;48.254;11.454;2022-10-16T04:43:36;2.07;;;1.20;;
40955;SDS011;26687;48.254;11.454;2022-10-16T04:46:36;2.57;;;1.43;;
40955;SDS011;26687;48.254;11.454;2022-10-16T04:49:37;1.73;;;1.10;;
40955;SDS011;26687;48.254;11.454;2022-10-16T04:52:37;2.40;;;1.77;;
40955;SDS011;26687;48.254;11.454;2022-10-16T04:55:37;1.90;;;1.40;;
40955;SDS011;26687;48.254;11.454;2022-10-16T04:58:38;1.67;;;1.30;;
40955;SDS011;26687;48.254;11.454;2022-10-16T05:01:38;1.83;;;1.67;;
40955;SDS011;26687;48.254;11.454;2022-10-16T05:04:38;2.55;;;1.30;;
40955;SDS011;26687;48.254;11.454;2022-10-16T05:07:38;1.92;;;1.30;;
40955;SDS011;26687;48.254;11.454;2022-10-16T05:10:39;2.40;;;1.30;;
40955;SDS011;26687;48.254;11.454;2022-10-16T05:13:40;1.40;;;1.15;;
40955;SDS011;26687;48.254;11.454;2022-10-16T05:16:40;2.47;;;1.30;;
40955;SDS011;26687;48.254;11.454;2022-10-16T05:19:41;4.00;;;1.30;;
40955;SDS011;26687;48.254;11.454;2022-10-16T05:22:41;1.40;;;1.30;;
40955;SDS011;26687;48.254;11.454;2022-10-16T05:25:41;2.47;;;1.30;;
40955;SDS011;26687;48.254;11.454;2022-10-16T05:28:41;1.30;;;1.17;;
40955;SDS011;26687;48.254;11.454;2022-10-16T05:31:42;1.75;;;1.17;;
40955;SDS011;26687;48.254;11.454;2022-10-16T05:34:42;1.50;;;1.40;;
40955;SDS011;26687;48.254;11.454;2022-10-16T05:37:42;1.55;;;1.38;;
40955;SDS011;26687;48.254;11.454;2022-10-16T05:40:43;1.88;;;1.35;;
40955;SDS011;26687;48.254;11.454;2022-10-16T05:43:43;1.43;;;1.33;;
40955;SDS011;26687;48.254;11.454;2022-10-16T05:46:43;1.50;;;1.37;;
40955;SDS011;26687;48.254;11.454;2022-10-16T05:49:45;2.15;;;1.20;;
40955;SDS011;26687;48.254;11.454;2022-10-16T05:52:45;1.90;;;1.45;;
40955;SDS011;26687;48.254;11.454;2022-10-16T05:55:51;2.90;;;1.40;;
40955;SDS011;26687;48.254;11.454;2022-10-16T05:58:51;2.60;;;1.67;;
40955;SDS011;26687;48.254;11.454;2022-10-16T06:01:51;1.43;;;1.33;;
40955;SDS011;26687;48.254;11.454;2022-10-16T06:04:53;3.20;;;1.40;;
40955;SDS011;26687;48.254;11.454;2022-10-16T06:07:53;2.20;;;1.42;;
40955;SDS011;26687;48.254;11.454;2022-10-16T06:11:00;3.65;;;1.52;;
40955;SDS011;26687;48.254;11.454;2022-10-16T06:14:01;5.25;;;1.33;;
40955;SDS011;26687;48.254;11.454;2022-10-16T06:17:02;1.30;;;1.20;;
40955;SDS011;26687;48.254;11.454;2022-10-16T06:20:02;2.00;;;1.20;;
40955;SDS011;26687;48.254;11.454;2022-10-16T06:23:03;2.97;;;1.60;;
40955;SDS011;26687;48.254;11.454;2022-10-16T06:26:11;2.47;;;1.20;;
40955;SDS011;26687;48.254;11.454;2022-10-16T06:29:11;1.25;;;1.15;;
40955;SDS011;26687;48.254;11.454;2022-10-16T06:32:11;2.90;;;1.37;;
40955;SDS011;26687;48.254;11.454;2022-10-16T06:35:11;2.03;;;1.30;;
40955;SDS011;26687;48.254;11.454;2022-10-16T06:38:12;1.73;;;1.50;;
40955;SDS011;26687;48.254;11.454;2022-10-16T06:41:13;2.45;;;1.40;;
40955;SDS011;26687;48.254;11.454;2022-10-16T06:44:13;3.00;;;1.63;;
40955;SDS011;26687;48.254;11.454;2022-10-16T06:47:13;2.17;;;1.90;;
40955;SDS011;26687;48.254;11.454;2022-10-16T06:50:13;3.38;;;1.80;;
40955;SDS011;26687;48.254;11.454;2022-10-16T06:53:14;1.43;;;1.33;;
40955;SDS011;26687;48.254;11.454;2022-10-16T06:56:15;2.65;;;1.67;;
40955;SDS011;26687;48.254;11.454;2022-10-16T06:59:16;2.80;;;1.75;;
40955;SDS011;26687;48.254;11.454;2022-10-16T07:02:16;4.80;;;1.90;;
40955;SDS011;26687;48.254;11.454;2022-10-16T07:05:16;1.63;;;1.53;;
40955;SDS011;26687;48.254;11.454;2022-10-16T07:08:16;2.53;;;2.00;;
40955;SDS011;26687;48.254;11.454;2022-10-16T07:11:18;2.05;;;1.63;;
40955;SDS011;26687;48.254;11.454;2022-10-16T07:14:19;5.15;;;2.15;;
40955;SDS011;26687;48.254;11.454;2022-10-16T07:17:20;5.88;;;2.13;;
40955;SDS011;26687;48.254;11.454;2022-10-16T07:20:20;4.20;;;1.50;;
40955;SDS011;26687;48.254;11.454;2022-10-16T07:23:20;2.13;;;1.63;;
40955;SDS011;26687;48.254;11.454;2022-10-16T07:26:21;1.80;;;1.70;;
40955;SDS011;26687;48.254;11.454;2022-10-16T07:29:21;4.97;;;1.77;;
40955;SDS011;26687;48.254;11.454;2022-10-16T07:32:21;2.13;;;1.73;;
40955;SDS011;26687;48.254;11.454;2022-10-16T07:35:21;2.72;;;1.58;;
40955;SDS011;26687;48.254;11.454;2022-10-16T07:38:22;2.22;;;1.63;;
40955;SDS011;26687;48.254;11.454;2022-10-16T07:41:22;3.03;;;1.77;;
40955;SDS011;26687;48.254;11.454;2022-10-16T07:44:22;2.28;;;1.40;;
40955;SDS011;26687;48.254;11.454;2022-10-16T07:47:23;2.05;;;1.90;;
40955;SDS011;26687;48.254;11.454;2022-10-16T07:50:23;6.00;;;2.27;;
40955;SDS011;26687;48.254;11.454;2022-10-16T07:53:23;2.90;;;2.10;;
40955;SDS011;26687;48.254;11.454;2022-10-16T07:56:23;2.22;;;2.03;;
40955;SDS011;26687;48.254;11.454;2022-10-16T07:59:23;3.90;;;1.90;;
40955;SDS011;26687;48.254;11.454;2022-10-16T08:02:24;2.00;;;1.80;;
40955;SDS011;26687;48.254;11.454;2022-10-16T08:05:24;1.52;;;1.30;;
40955;SDS011;26687;48.254;11.454;2022-10-16T09:15:34;7.30;;;1.60;;
40955;SDS011;26687;48.254;11.454;2022-10-16T09:21:45;2.13;;;1.55;;
40955;SDS011;26687;48.254;11.454;2022-10-16T09:24:45;4.22;;;1.70;;
40955;SDS011;26687;48.254;11.454;2022-10-16T09:27:47;3.78;;;1.70;;
40955;SDS011;26687;48.254;11.454;2022-10-16T09:30:47;1.38;;;1.27;;
40955;SDS011;26687;48.254;11.454;2022-10-16T09:33:55;2.05;;;1.42;;
40955;SDS011;26687;48.254;11.454;2022-10-16T09:36:58;1.33;;;1.23;;
40955;SDS011;26687;48.254;11.454;2022-10-16T09:40:00;1.50;;;1.40;;
40955;SDS011;26687;48.254;11.454;2022-10-16T09:43:16;1.60;;;1.50;;
40955;SDS011;26687;48.254;11.454;2022-10-16T09:46:32;2.05;;;1.30;;
40955;SDS011;26687;48.254;11.454;2022-10-16T09:49:32;3.67;;;1.52;;
40955;SDS011;26687;48.254;11.454;2022-10-16T09:52:32;1.40;;;1.30;;
40955;SDS011;26687;48.254;11.454;2022-10-16T09:55:33;1.95;;;1.20;;
40955;SDS011;26687;48.254;11.454;2022-10-16T09:58:33;4.57;;;1.40;;
40955;SDS011;26687;48.254;11.454;2022-10-16T10:01:47;1.30;;;1.20;;
40955;SDS011;26687;48.254;11.454;2022-10-16T10:04:49;1.35;;;1.25;;
40955;SDS011;26687;48.254;11.454;2022-10-16T10:07:56;1.52;;;1.40;;
40955;SDS011;26687;48.254;11.454;2022-10-16T10:10:57;1.48;;;1.38;;
40955;SDS011;26687;48.254;11.454;2022-10-16T10:14:32;2.45;;;1.50;;
40955;SDS011;26687;48.254;11.454;2022-10-16T10:17:25;1.40;;;1.30;;
40955;SDS011;26687;48.254;11.454;2022-10-16T10:20:27;2.05;;;1.40;;
40955;SDS011;26687;48.254;11.454;2022-10-16T10:23:28;1.58;;;1.48;;
40955;SDS011;26687;48.254;11.454;2022-10-16T10:26:29;1.40;;;1.30;;
40955;SDS011;26687;48.254;11.454;2022-10-16T10:29:38;2.40;;;1.40;;
40955;SDS011;26687;48.254;11.454;2022-10-16T10:32:48;1.25;;;1.15;;
40955;SDS011;26687;48.254;11.454;2022-10-16T10:38:57;1.65;;;1.10;;
40955;SDS011;26687;48.254;11.454;2022-10-16T10:51:21;2.37;;;1.10;;
40955;SDS011;26687;48.254;11.454;2022-10-16T10:54:38;1.17;;;1.08;;
40955;SDS011;26687;48.254;11.454;2022-10-16T11:01:17;3.92;;;1.10;;
40955;SDS011;26687;48.254;11.454;2022-10-16T11:07:27;1.00;;;0.75;;
40955;SDS011;26687;48.254;11.454;2022-10-16T11:10:32;1.17;;;0.82;;
40955;SDS011;26687;48.254;11.454;2022-10-16T11:13:43;0.80;;;0.80;;
40955;SDS011;26687;48.254;11.454;2022-10-16T11:19:54;2.65;;;0.57;;
40955;SDS011;26687;48.254;11.454;2022-10-16T11:22:58;0.70;;;0.55;;
40955;SDS011;26687;48.254;11.454;2022-10-16T11:26:01;0.65;;;0.50;;
40955;SDS011;26687;48.254;11.454;2022-10-16T11:29:02;0.55;;;0.50;;
40955;SDS011;26687;48.254;11.454;2022-10-16T11:32:05;2.20;;;0.55;;
40955;SDS011;26687;48.254;11.454;2022-10-16T11:35:15;1.90;;;0.80;;
40955;SDS011;26687;48.254;11.454;2022-10-16T11:38:21;0.60;;;0.50;;
40955;SDS011;26687;48.254;11.454;2022-10-16T11:44:34;1.48;;;0.50;;
40955;SDS011;26687;48.254;11.454;2022-10-16T11:50:50;0.70;;;0.50;;
40955;SDS011;26687;48.254;11.454;2022-10-16T11:56:54;0.77;;;0.47;;
40955;SDS011;26687;48.254;11.454;2022-10-16T11:59:55;2.17;;;0.97;;
40955;SDS011;26687;48.254;11.454;2022-10-16T12:18:23;1.40;;;0.52;;
40955;SDS011;26687;48.254;11.454;2022-10-16T12:21:23;0.73;;;0.38;;
40955;SDS011;26687;48.254;11.454;2022-10-16T12:24:34;0.73;;;0.40;;
40955;SDS011;26687;48.254;11.454;2022-10-16T12:27:35;9.30;;;1.15;;
40955;SDS011;26687;48.254;11.454;2022-10-16T12:30:35;3.65;;;0.90;;
40955;SDS011;26687;48.254;11.454;2022-10-16T12:33:36;1.20;;;0.60;;
40955;SDS011;26687;48.254;11.454;2022-10-16T12:36:37;0.43;;;0.40;;
40955;SDS011;26687;48.254;11.454;2022-10-16T12:39:38;2.23;;;0.50;;
40955;SDS011;26687;48.254;11.454;2022-10-16T12:42:38;0.77;;;0.50;;
40955;SDS011;26687;48.254;11.454;2022-10-16T12:45:38;0.40;;;0.40;;
40955;SDS011;26687;48.254;11.454;2022-10-16T12:48:40;3.23;;;0.90;;
40955;SDS011;26687;48.254;11.454;2022-10-16T12:51:41;0.65;;;0.55;;
40955;SDS011;26687;48.254;11.454;2022-10-16T12:54:41;0.50;;;0.50;;
40955;SDS011;26687;48.254;11.454;2022-10-16T13:00:58;1.67;;;0.70;;
40955;SDS011;26687;48.254;11.454;2022-10-16T13:19:28;0.77;;;0.30;;
40955;SDS011;26687;48.254;11.454;2022-10-16T13:22:41;2.67;;;0.50;;
40955;SDS011;26687;48.254;11.454;2022-10-16T13:28:45;0.53;;;0.40;;
40955;SDS011;26687;48.254;11.454;2022-10-16T13:31:45;0.60;;;0.40;;
40955;SDS011;26687;48.254;11.454;2022-10-16T13:34:46;2.00;;;0.43;;
40955;SDS011;26687;48.254;11.454;2022-10-16T13:37:48;0.65;;;0.40;;
40955;SDS011;26687;48.254;11.454;2022-10-16T13:40:53;0.63;;;0.40;;
40955;SDS011;26687;48.254;11.454;2022-10-16T13:43:54;2.05;;;0.40;;
40955;SDS011;26687;48.254;11.454;2022-10-16T13:46:59;2.08;;;0.40;;
40955;SDS011;26687;48.254;11.454;2022-10-16T13:50:01;2.47;;;0.50;;
40955;SDS011;26687;48.254;11.454;2022-10-16T13:53:05;2.33;;;0.40;;
40955;SDS011;26687;48.254;11.454;2022-10-16T13:56:06;1.17;;;0.47;;
40955;SDS011;26687;48.254;11.454;2022-10-16T13:59:22;0.85;;;0.40;;
40955;SDS011;26687;48.254;11.454;2022-10-16T14:02:40;0.93;;;0.57;;
40955;SDS011;26687;48.254;11.454;2022-10-16T14:05:48;0.40;;;0.35;;
40955;SDS011;26687;48.254;11.454;2022-10-16T14:08:50;2.55;;;0.80;;
40955;SDS011;26687;48.254;11.454;2022-10-16T14:11:53;1.98;;;0.50;;
40955;SDS011;26687;48.254;11.454;2022-10-16T14:14:54;0.80;;;0.40;;
40955;SDS011;26687;48.254;11.454;2022-10-16T14:17:55;0.80;;;0.60;;
40955;SDS011;26687;48.254;11.454;2022-10-16T14:21:02;0.52;;;0.40;;
40955;SDS011;26687;48.254;11.454;2022-10-16T14:24:12;1.25;;;0.60;;
40955;SDS011;26687;48.254;11.454;2022-10-16T14:30:49;0.47;;;0.47;;
40955;SDS011;26687;48.254;11.454;2022-10-16T14:33:50;1.38;;;0.60;;
40955;SDS011;26687;48.254;11.454;2022-10-16T14:36:50;1.15;;;0.60;;
40955;SDS011;26687;48.254;11.454;2022-10-16T14:39:51;1.48;;;0.82;;
40955;SDS011;26687;48.254;11.454;2022-10-16T14:42:51;1.00;;;0.65;;
40955;SDS011;26687;48.254;11.454;2022-10-16T14:45:53;1.10;;;0.57;;
40955;SDS011;26687;48.254;11.454;2022-10-16T14:48:59;1.35;;;0.60;;
40955;SDS011;26687;48.254;11.454;2022-10-16T14:52:00;2.03;;;0.60;;
40955;SDS011;26687;48.254;11.454;2022-10-16T14:55:01;1.80;;;0.60;;
40955;SDS011;26687;48.254;11.454;2022-10-16T14:58:01;1.95;;;0.50;;
40955;SDS011;26687;48.254;11.454;2022-10-16T15:01:02;0.90;;;0.70;;
40955;SDS011;26687;48.254;11.454;2022-10-16T15:04:02;0.67;;;0.60;;
40955;SDS011;26687;48.254;11.454;2022-10-16T15:07:02;0.90;;;0.80;;
40955;SDS011;26687;48.254;11.454;2022-10-16T15:10:02;1.10;;;0.65;;
40955;SDS011;26687;48.254;11.454;2022-10-16T15:13:03;2.92;;;0.70;;
40955;SDS011;26687;48.254;11.454;2022-10-16T15:16:03;3.33;;;0.90;;
40955;SDS011;26687;48.254;11.454;2022-10-16T15:19:03;1.13;;;0.80;;
40955;SDS011;26687;48.254;11.454;2022-10-16T15:22:04;0.80;;;0.50;;
40955;SDS011;26687;48.254;11.454;2022-10-16T15:28:19;0.80;;;0.68;;
40955;SDS011;26687;48.254;11.454;2022-10-16T15:31:20;0.68;;;0.52;;
40955;SDS011;26687;48.254;11.454;2022-10-16T15:34:21;0.70;;;0.70;;
40955;SDS011;26687;48.254;11.454;2022-10-16T15:37:21;3.00;;;0.85;;
40955;SDS011;26687;48.254;11.454;2022-10-16T15:40:21;0.70;;;0.63;;
40955;SDS011;26687;48.254;11.454;2022-10-16T15:43:22;1.20;;;0.70;;
40955;SDS011;26687;48.254;11.454;2022-10-16T15:46:24;1.27;;;0.70;;
40955;SDS011;26687;48.254;11.454;2022-10-16T15:49:24;1.42;;;0.80;;
40955;SDS011;26687;48.254;11.454;2022-10-16T15:52:25;0.70;;;0.70;;
40955;SDS011;26687;48.254;11.454;2022-10-16T15:55:25;2.17;;;0.90;;
40955;SDS011;26687;48.254;11.454;2022-10-16T15:58:25;1.77;;;0.80;;
40955;SDS011;26687;48.254;11.454;2022-10-16T16:01:27;3.53;;;1.20;;
40955;SDS011;26687;48.254;11.454;2022-10-16T16:04:29;2.17;;;1.35;;
40955;SDS011;26687;48.254;11.454;2022-10-16T16:07:33;1.95;;;1.48;;
40955;SDS011;26687;48.254;11.454;2022-10-16T16:10:34;2.72;;;2.00;;
40955;SDS011;26687;48.254;11.454;2022-10-16T16:13:34;3.97;;;3.57;;
40955;SDS011;26687;48.254;11.454;2022-10-16T16:16:37;3.90;;;3.08;;
40955;SDS011;26687;48.254;11.454;2022-10-16T16:19:38;3.80;;;2.25;;
40955;SDS011;26687;48.254;11.454;2022-10-16T16:22:38;2.35;;;2.10;;
40955;SDS011;26687;48.254;11.454;2022-10-16T16:25:38;4.38;;;1.88;;
40955;SDS011;26687;48.254;11.454;2022-10-16T16:28:39;3.20;;;1.90;;
40955;SDS011;26687;48.254;11.454;2022-10-16T16:31:39;1.95;;;1.75;;
40955;SDS011;26687;48.254;11.454;2022-10-16T16:34:40;1.85;;;1.52;;
40955;SDS011;26687;48.254;11.454;2022-10-16T16:37:40;5.27;;;2.20;;
40955;SDS011;26687;48.254;11.454;2022-10-16T16:40:40;2.27;;;1.90;;
40955;SDS011;26687;48.254;11.454;2022-10-16T16:43:40;3.38;;;1.70;;
40955;SDS011;26687;48.254;11.454;2022-10-16T16:46:41;3.03;;;1.60;;
40955;SDS011;26687;48.254;11.454;2022-10-16T16:49:42;6.90;;;2.03;;
40955;SDS011;26687;48.254;11.454;2022-10-16T16:52:42;2.75;;;1.20;;
40955;SDS011;26687;48.254;11.454;2022-10-16T16:55:43;2.97;;;1.40;;
40955;SDS011;26687;48.254;11.454;2022-10-16T16:58:46;2.00;;;1.10;;
40955;SDS011;26687;48.254;11.454;2022-10-16T17:01:47;3.63;;;1.60;;
40955;SDS011;26687;48.254;11.454;2022-10-16T17:04:47;2.63;;;1.45;;
40955;SDS011;26687;48.254;11.454;2022-10-16T17:07:47;2.70;;;1.30;;
40955;SDS011;26687;48.254;11.454;2022-10-16T17:10:48;4.07;;;1.30;;
40955;SDS011;26687;48.254;11.454;2022-10-16T17:13:53;2.08;;;1.60;;
40955;SDS011;26687;48.254;11.454;2022-10-16T17:16:54;4.20;;;1.40;;
40955;SDS011;26687;48.254;11.454;2022-10-16T17:19:54;2.63;;;1.30;;
40955;SDS011;26687;48.254;11.454;2022-10-16T17:22:54;1.73;;;1.58;;
40955;SDS011;26687;48.254;11.454;2022-10-16T17:25:54;5.30;;;1.40;;
40955;SDS011;26687;48.254;11.454;2022-10-16T17:28:55;2.40;;;1.40;;
40955;SDS011;26687;48.254;11.454;2022-10-16T17:31:56;2.58;;;1.25;;
40955;SDS011;26687;48.254;11.454;2022-10-16T17:34:58;2.17;;;1.40;;
40955;SDS011;26687;48.254;11.454;2022-10-16T17:37:58;2.28;;;1.42;;
40955;SDS011;26687;48.254;11.454;2022-10-16T17:40:58;3.55;;;1.70;;
40955;SDS011;26687;48.254;11.454;2022-10-16T17:43:58;3.47;;;1.87;;
40955;SDS011;26687;48.254;11.454;2022-10-16T17:46:59;2.33;;;2.00;;
40955;SDS011;26687;48.254;11.454;2022-10-16T17:49:59;3.55;;;2.40;;
40955;SDS011;26687;48.254;11.454;2022-10-16T17:52:59;4.82;;;2.50;;
40955;SDS011;26687;48.254;11.454;2022-10-16T17:56:06;2.23;;;2.03;;
40955;SDS011;26687;48.254;11.454;2022-10-16T17:59:06;2.10;;;1.90;;
40955;SDS011;26687;48.254;11.454;2022-10-16T18:02:08;3.40;;;2.00;;
40955;SDS011;26687;48.254;11.454;2022-10-16T18:05:08;3.17;;;2.30;;
40955;SDS011;26687;48.254;11.454;2022-10-16T18:08:08;3.42;;;1.83;;
40955;SDS011;26687;48.254;11.454;2022-10-16T18:11:09;2.03;;;1.87;;
40955;SDS011;26687;48.254;11.454;2022-10-16T18:14:12;2.53;;;2.10;;
40955;SDS011;26687;48.254;11.454;2022-10-16T18:17:13;2.55;;;2.20;;
40955;SDS011;26687;48.254;11.454;2022-10-16T18:20:15;3.00;;;2.70;;
40955;SDS011;26687;48.254;11.454;2022-10-16T18:23:15;3.65;;;2.17;;
40955;SDS011;26687;48.254;11.454;2022-10-16T18:26:15;3.15;;;2.30;;
40955;SDS011;26687;48.254;11.454;2022-10-16T18:29:15;2.20;;;2.00;;
40955;SDS011;26687;48.254;11.454;2022-10-16T18:32:16;4.47;;;2.80;;
40955;SDS011;26687;48.254;11.454;2022-10-16T18:35:16;3.00;;;2.70;;
40955;SDS011;26687;48.254;11.454;2022-10-16T18:38:17;3.83;;;3.13;;
40955;SDS011;26687;48.254;11.454;2022-10-16T18:41:17;4.22;;;3.53;;
40955;SDS011;26687;48.254;11.454;2022-10-16T18:44:17;5.63;;;3.67;;
40955;SDS011;26687;48.254;11.454;2022-10-16T18:47:17;4.18;;;3.60;;
40955;SDS011;26687;48.254;11.454;2022-10-16T18:50:18;4.57;;;3.90;;
40955;SDS011;26687;48.254;11.454;2022-10-16T18:53:18;5.53;;;4.05;;
40955;SDS011;26687;48.254;11.454;2022-10-16T18:56:19;5.65;;;4.38;;
40955;SDS011;26687;48.254;11.454;2022-10-16T18:59:19;6.45;;;5.18;;
40955;SDS011;26687;48.254;11.454;2022-10-16T19:02:19;5.70;;;4.95;;
40955;SDS011;26687;48.254;11.454;2022-10-16T19:05:20;7.40;;;4.80;;
40955;SDS011;26687;48.254;11.454;2022-10-16T19:08:20;5.20;;;4.70;;
40955;SDS011;26687;48.254;11.454;2022-10-16T19:11:21;6.53;;;5.90;;
40955;SDS011;26687;48.254;11.454;2022-10-16T19:14:21;6.63;;;5.80;;
40955;SDS011;26687;48.254;11.454;2022-10-16T19:17:22;6.87;;;5.67;;
40955;SDS011;26687;48.254;11.454;2022-10-16T19:20:22;6.80;;;5.63;;
40955;SDS011;26687;48.254;11.454;2022-10-16T19:23:22;6.77;;;5.90;;
40955;SDS011;26687;48.254;11.454;2022-10-16T19:26:22;8.33;;;5.77;;
40955;SDS011;26687;48.254;11.454;2022-10-16T19:29:23;6.93;;;6.32;;
40955;SDS011;26687;48.254;11.454;2022-10-16T19:32:23;6.50;;;5.90;;
40955;SDS011;26687;48.254;11.454;2022-10-16T19:35:23;5.82;;;5.25;;
40955;SDS011;26687;48.254;11.454;2022-10-16T19:38:25;6.68;;;5.97;;
40955;SDS011;26687;48.254;11.454;2022-10-16T19:41:26;6.97;;;6.20;;
40955;SDS011;26687;48.254;11.454;2022-10-16T19:44:26;5.82;;;5.25;;
40955;SDS011;26687;48.254;11.454;2022-10-16T19:47:26;6.57;;;4.87;;
40955;SDS011;26687;48.254;11.454;2022-10-16T19:50:26;6.30;;;4.30;;
40955;SDS011;26687;48.254;11.454;2022-10-16T19:53:27;8.80;;;4.38;;
40955;SDS011;26687;48.254;11.454;2022-10-16T19:56:28;6.10;;;4.97;;
40955;SDS011;26687;48.254;11.454;2022-10-16T19:59:29;5.40;;;4.82;;
40955;SDS011;26687;48.254;11.454;2022-10-16T20:02:29;6.82;;;4.95;;
40955;SDS011;26687;48.254;11.454;2022-10-16T20:05:29;4.80;;;4.15;;
40955;SDS011;26687;48.254;11.454;2022-10-16T20:08:29;7.68;;;4.40;;
40955;SDS011;26687;48.254;11.454;2022-10-16T20:11:31;7.03;;;4.30;;
40955;SDS011;26687;48.254;11.454;2022-10-16T20:14:31;5.22;;;4.60;;
40955;SDS011;26687;48.254;11.454;2022-10-16T20:17:31;6.33;;;4.47;;
40955;SDS011;26687;48.254;11.454;2022-10-16T20:20:35;6.17;;;4.63;;
40955;SDS011;26687;48.254;11.454;2022-10-16T20:23:35;4.07;;;3.53;;
40955;SDS011;26687;48.254;11.454;2022-10-16T20:26:36;3.95;;;3.58;;
40955;SDS011;26687;48.254;11.454;2022-10-16T20:29:36;5.73;;;3.70;;
40955;SDS011;26687;48.254;11.454;2022-10-16T20:32:36;6.47;;;3.57;;